KBDL/BDL METAR and TAF weather

Enter ICAO airport designator
Station Type Date Time Source
KBDL METAR 2019/02/23 16:51 UTC NOAA

KBDL 231651Z 00000KT 10SM OVC250 02/M08 A3045 RMK AO2 SLP312 T00221083


Station Type Date Time Source
KBDL Decoded METAR 2019/02/23 16:51 UTC NOAA

BRADLEY INTERNATIONAL AIRPORT , CT, United States (KBDL) 41-56N 072-41W 60M
Feb 23, 2019 - 11:51 AM EST / 2019.02.23 1651 UTC
Wind: Calm:0
Visibility: 10 mile(s):0
Sky conditions: overcast
Temperature: 36.0 F (2.2 C)
Dew Point: 17.1 F (-8.3 C)
Relative Humidity: 45%
Pressure (altimeter): 30.45 in. Hg (1031 hPa)
ob: KBDL 231651Z 00000KT 10SM OVC250 02/M08 A3045 RMK AO2 SLP312 T00221083
cycle: 17

Station Type Date Time Source
KBDL TAF 2019/02/23 15:06 UTC NOAA

TAF
AMD KBDL 231504Z 2315/2418 36005KT P6SM SCT250
FM231900 17005KT P6SM SCT250
FM240600 10003KT P6SM VCSH OVC060
FM240800 07004KT 2SM -RA BR OVC020
FM241500 08006KT 1SM RA BR OVC008
FM241700 11005KT 2SM -RA BR OVC008


Example: see airport list